Time;durP1;ratioP1;P1;durP2;ratioP2;P2;SDS_P1;SDS_P2;PMS_P1;PMS_P2;Temp;Humidity;BMP_temperature;BMP_pressure;BME280_temperature;BME280_humidity;BME280_pressure;Samples;Min_cycle;Max_cycle;Signal;HPM_P1;HPM_P2
2022/06/08 00:00:47;;;;;;;3.60;3.30;;;16.20;99.90;;;;;;5072601;28;20198;-70
2022/06/08 00:03:19;;;;;;;3.20;3.00;;;16.20;99.90;;;;;;5073477;28;20298;-70
2022/06/08 00:05:45;;;;;;;3.60;3.30;;;16.30;99.90;;;;;;5073973;28;20205;-71
2022/06/08 00:08:12;;;;;;;4.10;3.78;;;16.30;99.90;;;;;;5072873;28;20198;-71
2022/06/08 00:10:39;;;;;;;3.97;3.42;;;16.20;99.90;;;;;;5073286;28;20263;-70
2022/06/08 00:13:07;;;;;;;4.00;3.70;;;16.20;99.90;;;;;;5073272;28;20202;-71
2022/06/08 00:15:34;;;;;;;5.05;4.07;;;16.10;99.90;;;;;;5072996;28;20251;-70
2022/06/08 00:18:03;;;;;;;4.03;3.63;;;16.10;99.90;;;;;;5072799;28;20263;-70
2022/06/08 00:20:30;;;;;;;4.53;4.07;;;16.00;99.90;;;;;;5072996;28;20305;-70
2022/06/08 00:22:57;;;;;;;5.90;3.38;;;16.00;99.90;;;;;;5073496;28;20661;-70
2022/06/08 00:25:24;;;;;;;4.10;3.67;;;16.10;99.90;;;;;;5073208;28;20267;-69
2022/06/08 00:27:51;;;;;;;3.72;3.42;;;16.10;99.90;;;;;;5072824;28;20248;-69
2022/06/08 00:30:18;;;;;;;3.65;3.35;;;16.20;99.90;;;;;;5072799;28;20225;-69
2022/06/08 00:32:46;;;;;;;3.83;3.20;;;16.30;99.90;;;;;;5073036;28;20205;-69
2022/06/08 00:35:14;;;;;;;3.53;3.33;;;16.20;99.90;;;;;;5072845;28;20201;-69
2022/06/08 00:37:41;;;;;;;3.80;3.50;;;16.20;99.90;;;;;;5072754;28;20231;-69
2022/06/08 00:40:10;;;;;;;3.85;3.55;;;16.30;99.90;;;;;;5072746;28;20232;-69
2022/06/08 00:42:38;;;;;;;3.58;3.20;;;16.30;99.90;;;;;;5072780;28;20664;-70
2022/06/08 00:45:08;;;;;;;4.32;3.75;;;16.40;99.90;;;;;;5072765;28;20201;-69
2022/06/08 00:47:41;;;;;;;4.05;3.17;;;16.40;99.90;;;;;;5072543;28;20203;-69
2022/06/08 00:50:13;;;;;;;4.75;3.35;;;16.40;99.90;;;;;;5072750;28;20654;-70
2022/06/08 00:52:42;;;;;;;3.78;3.40;;;16.40;99.90;;;;;;5072688;28;20359;-70
2022/06/08 00:55:11;;;;;;;3.45;3.15;;;16.40;99.90;;;;;;5073410;28;20300;-69
2022/06/08 00:57:43;;;;;;;3.20;3.00;;;16.40;99.90;;;;;;5072918;28;20313;-70
2022/06/08 01:00:15;;;;;;;5.00;3.17;;;16.30;99.90;;;;;;5071606;28;20316;-70
2022/06/08 01:02:42;;;;;;;3.30;2.92;;;16.30;99.90;;;;;;5072731;28;20214;-70
2022/06/08 01:05:18;;;;;;;4.90;3.15;;;16.20;99.90;;;;;;5072911;28;20293;-70
2022/06/08 01:07:47;;;;;;;4.22;3.38;;;16.20;99.90;;;;;;5073422;28;20292;-71
2022/06/08 01:10:16;;;;;;;3.83;3.40;;;16.10;99.90;;;;;;5073239;28;20626;-71
2022/06/08 01:12:43;;;;;;;4.40;3.33;;;16.20;99.90;;;;;;5072773;28;20202;-70
2022/06/08 01:15:13;;;;;;;3.10;2.90;;;16.20;99.90;;;;;;5073216;28;20257;-71
2022/06/08 01:17:41;;;;;;;3.20;3.00;;;16.20;99.90;;;;;;5072757;28;20229;-70
2022/06/08 01:20:10;;;;;;;3.50;3.30;;;16.20;99.90;;;;;;5072520;28;20309;-70
2022/06/08 01:22:39;;;;;;;3.40;3.10;;;16.20;99.90;;;;;;5072555;28;20209;-70
2022/06/08 01:25:08;;;;;;;3.97;3.55;;;16.10;99.90;;;;;;5072587;28;20263;-70
2022/06/08 01:27:50;;;;;;;3.90;3.60;;;16.00;99.90;;;;;;5072510;28;20202;-70
2022/06/08 01:30:21;;;;;;;4.07;3.67;;;15.90;99.90;;;;;;5072277;28;20308;-70
2022/06/08 01:33:18;;;;;;;3.72;3.42;;;15.90;99.90;;;;;;5072262;28;20206;-70
2022/06/08 01:35:58;;;;;;;4.68;3.75;;;15.80;99.90;;;;;;5072409;28;20206;-70
2022/06/08 01:38:33;;;;;;;3.88;3.45;;;15.80;99.90;;;;;;5072107;28;20233;-69
2022/06/08 01:41:16;;;;;;;4.57;3.40;;;15.90;99.90;;;;;;5072502;28;20552;-70
2022/06/08 01:43:55;;;;;;;4.50;3.95;;;15.90;99.90;;;;;;5072270;28;20214;-70
2022/06/08 01:46:26;;;;;;;4.10;3.72;;;15.80;99.90;;;;;;5072114;28;20304;-70
2022/06/08 01:49:16;;;;;;;4.15;3.75;;;15.80;99.90;;;;;;5071471;28;20312;-70
2022/06/08 01:51:58;;;;;;;4.40;4.00;;;15.70;99.90;;;;;;5072460;28;20206;-69
2022/06/08 01:54:38;;;;;;;3.83;3.42;;;15.70;99.90;;;;;;5073033;28;20271;-69
2022/06/08 01:57:14;;;;;;;4.88;3.50;;;15.60;99.90;;;;;;5073293;28;20228;-69
2022/06/08 01:59:48;;;;;;;4.35;4.00;;;15.70;99.90;;;;;;5073417;28;20316;-69
2022/06/08 02:02:25;;;;;;;4.40;4.00;;;15.60;99.90;;;;;;5073105;28;20202;-69
2022/06/08 02:04:57;;;;;;;3.80;3.50;;;15.70;99.90;;;;;;5073466;28;20214;-69
2022/06/08 02:07:32;;;;;;;3.90;3.60;;;15.60;99.90;;;;;;5073488;28;20288;-69
2022/06/08 02:10:08;;;;;;;4.65;4.20;;;15.60;99.90;;;;;;5073170;28;20770;-69
2022/06/08 02:12:40;;;;;;;6.55;3.60;;;15.50;99.90;;;;;;5076923;28;20288;-69
2022/06/08 02:15:12;;;;;;;3.80;3.50;;;15.60;99.90;;;;;;5076879;28;20205;-69
2022/06/08 02:17:44;;;;;;;4.35;3.95;;;15.50;99.90;;;;;;5076479;28;20316;-69
2022/06/08 02:20:20;;;;;;;4.60;3.75;;;15.50;99.90;;;;;;5076780;28;20260;-69
2022/06/08 02:22:52;;;;;;;4.65;3.35;;;15.50;99.90;;;;;;5076508;28;20204;-69
2022/06/08 02:25:26;;;;;;;5.63;3.60;;;15.60;99.90;;;;;;5076734;28;20243;-69
2022/06/08 02:27:58;;;;;;;4.93;3.42;;;15.60;99.90;;;;;;5076468;28;20707;-69
2022/06/08 02:30:28;;;;;;;4.03;3.35;;;15.60;99.90;;;;;;5076250;28;20237;-69
2022/06/08 02:35:51;;;;;;;3.90;3.60;;;15.60;99.90;;;;;;5076475;28;20201;-69
2022/06/08 02:38:22;;;;;;;4.45;3.10;;;15.60;99.90;;;;;;5076189;28;20311;-69
2022/06/08 02:40:53;;;;;;;3.63;3.33;;;15.60;99.90;;;;;;5076431;28;20605;-69
2022/06/08 02:43:27;;;;;;;6.13;3.88;;;15.70;99.90;;;;;;5076215;28;20202;-69
2022/06/08 02:46:03;;;;;;;4.38;3.50;;;15.70;99.90;;;;;;5076387;28;20292;-69
2022/06/08 02:48:30;;;;;;;3.80;3.38;;;15.60;99.90;;;;;;5076087;28;20201;-70
2022/06/08 02:50:58;;;;;;;4.85;3.38;;;15.60;99.90;;;;;;5076200;28;20296;-69
2022/06/08 02:54:00;;;;;;;4.80;3.15;;;15.60;99.90;;;;;;5075888;28;20217;-69
2022/06/08 02:56:52;;;;;;;3.97;3.67;;;15.50;99.90;;;;;;5014420;28;20209;-69
2022/06/08 02:59:25;;;;;;;3.80;3.50;;;15.40;99.90;;;;;;5014182;28;20785;-69
2022/06/08 03:01:59;;;;;;;4.60;4.30;;;15.40;99.90;;;;;;5055111;28;20303;-69
2022/06/08 03:04:30;;;;;;;4.85;3.47;;;15.50;99.90;;;;;;5075794;28;20296;-69
2022/06/08 03:07:01;;;;;;;4.15;3.75;;;15.40;99.90;;;;;;5076008;28;20302;-69
2022/06/08 03:09:29;;;;;;;3.90;3.60;;;15.40;99.90;;;;;;5075770;28;20653;-69
2022/06/08 03:12:01;;;;;;;4.80;3.80;;;15.40;99.90;;;;;;5075855;28;20622;-69
2022/06/08 03:14:29;;;;;;;3.67;3.38;;;15.30;99.90;;;;;;5075386;28;20671;-69
2022/06/08 03:16:59;;;;;;;4.13;3.72;;;15.30;99.90;;;;;;5075774;28;20220;-69
2022/06/08 03:19:28;;;;;;;3.97;3.58;;;15.20;99.90;;;;;;5075706;28;20260;-69
2022/06/08 03:21:56;;;;;;;4.00;3.70;;;15.30;99.90;;;;;;5074772;28;20287;-69
2022/06/08 03:24:25;;;;;;;4.18;3.80;;;15.40;99.90;;;;;;5075587;28;20204;-69
2022/06/08 03:26:54;;;;;;;4.07;3.67;;;15.40;99.90;;;;;;5075270;28;20299;-69
2022/06/08 03:29:24;;;;;;;4.20;3.90;;;15.30;99.90;;;;;;5075240;28;20317;-69
2022/06/08 03:31:51;;;;;;;4.30;3.90;;;15.20;99.90;;;;;;5075094;28;20758;-69
2022/06/08 03:34:18;;;;;;;7.47;4.05;;;15.20;99.90;;;;;;5075077;28;20296;-69
2022/06/08 03:36:46;;;;;;;5.43;4.15;;;15.30;99.90;;;;;;5075190;28;20639;-69
2022/06/08 03:39:13;;;;;;;4.05;3.75;;;15.30;99.90;;;;;;5075204;28;20225;-69
2022/06/08 03:41:41;;;;;;;5.72;4.22;;;15.40;99.90;;;;;;5075246;28;20225;-69
2022/06/08 03:44:08;;;;;;;4.00;3.70;;;15.30;99.90;;;;;;5074779;28;20291;-69
2022/06/08 03:46:39;;;;;;;4.32;3.92;;;15.30;99.90;;;;;;5075013;28;20295;-69
2022/06/08 03:49:07;;;;;;;3.92;3.60;;;15.30;99.90;;;;;;5074895;28;20225;-69
2022/06/08 03:51:35;;;;;;;5.28;3.95;;;15.40;99.90;;;;;;5074842;28;20201;-69
2022/06/08 03:54:06;;;;;;;4.38;3.95;;;15.50;99.90;;;;;;5074811;28;20638;-69
2022/06/08 03:56:34;;;;;;;4.60;4.20;;;15.50;99.90;;;;;;5074947;28;20213;-69
2022/06/08 03:59:02;;;;;;;3.83;3.33;;;15.50;99.90;;;;;;5074510;28;20340;-69
2022/06/08 04:01:30;;;;;;;3.80;3.50;;;15.60;99.90;;;;;;5074471;28;20216;-69
2022/06/08 04:03:59;;;;;;;4.30;3.88;;;15.60;99.90;;;;;;5074739;28;20266;-69
2022/06/08 04:06:26;;;;;;;4.43;4.03;;;15.60;99.90;;;;;;5074706;28;20301;-69
2022/06/08 04:08:53;;;;;;;4.18;3.20;;;15.70;99.90;;;;;;5074432;28;20717;-69
2022/06/08 04:11:20;;;;;;;3.85;3.55;;;15.70;99.90;;;;;;5074687;28;20301;-69
2022/06/08 04:13:47;;;;;;;4.00;3.70;;;15.80;99.90;;;;;;5074277;28;20296;-69
2022/06/08 04:16:15;;;;;;;4.25;3.95;;;15.70;99.90;;;;;;5074392;28;20620;-69
2022/06/08 04:18:43;;;;;;;4.10;3.70;;;15.80;99.90;;;;;;5074249;28;20225;-69
2022/06/08 04:21:13;;;;;;;3.67;3.42;;;15.80;99.90;;;;;;5074133;28;20297;-69
2022/06/08 04:23:42;;;;;;;3.75;3.45;;;15.80;99.90;;;;;;5074291;28;20271;-69
2022/06/08 04:26:10;;;;;;;6.05;4.07;;;16.00;99.90;;;;;;5074195;28;20763;-69
2022/06/08 04:28:37;;;;;;;4.38;4.07;;;15.90;99.90;;;;;;5074116;28;20318;-69
2022/06/08 04:31:04;;;;;;;4.45;4.15;;;15.90;99.90;;;;;;5074195;28;20292;-69
2022/06/08 04:33:31;;;;;;;4.35;3.95;;;15.90;99.90;;;;;;5073760;28;20298;-69
2022/06/08 04:35:58;;;;;;;5.40;3.95;;;15.90;99.90;;;;;;5074160;28;20568;-69
2022/06/08 04:38:27;;;;;;;5.05;4.65;;;15.80;99.90;;;;;;5074079;28;20226;-69
2022/06/08 04:40:54;;;;;;;4.30;3.90;;;15.60;99.90;;;;;;5074113;28;20209;-69
2022/06/08 04:43:21;;;;;;;3.88;3.50;;;15.70;99.90;;;;;;5073741;28;20267;-69
2022/06/08 04:45:48;;;;;;;4.72;3.38;;;15.60;99.90;;;;;;5074109;28;20245;-69
2022/06/08 04:48:16;;;;;;;4.95;4.50;;;15.60;99.90;;;;;;5074070;28;20288;-69
2022/06/08 04:50:43;;;;;;;4.30;3.92;;;15.50;99.90;;;;;;5073985;28;20216;-69
2022/06/08 04:53:10;;;;;;;4.22;3.05;;;15.60;99.90;;;;;;5073415;28;20304;-69
2022/06/08 04:55:38;;;;;;;4.88;3.10;;;15.60;99.90;;;;;;5073728;28;20214;-69
2022/06/08 04:58:05;;;;;;;3.20;2.90;;;15.60;99.90;;;;;;5073879;28;20316;-69
2022/06/08 05:00:33;;;;;;;3.05;2.40;;;15.60;99.90;;;;;;5074017;28;20308;-69
2022/06/08 05:03:00;;;;;;;5.32;2.97;;;15.50;99.90;;;;;;5073544;28;20305;-69
2022/06/08 05:05:31;;;;;;;6.15;3.13;;;15.60;99.90;;;;;;5073724;28;20311;-69
2022/06/08 05:07:58;;;;;;;4.95;3.17;;;15.60;99.90;;;;;;5073715;28;20215;-69
2022/06/08 05:10:31;;;;;;;3.45;3.05;;;15.60;99.90;;;;;;5073304;28;20312;-69
2022/06/08 05:13:00;;;;;;;4.22;3.63;;;15.50;99.90;;;;;;5073940;28;20573;-69
2022/06/08 05:15:30;;;;;;;2.90;2.60;;;15.50;99.90;;;;;;5073417;28;20743;-69
2022/06/08 05:17:57;;;;;;;4.03;2.85;;;15.40;99.90;;;;;;5073525;28;20257;-69
2022/06/08 05:20:25;;;;;;;2.90;2.70;;;15.50;99.90;;;;;;5073556;28;20239;-69
2022/06/08 05:22:52;;;;;;;4.97;3.00;;;15.40;99.90;;;;;;5073290;28;20300;-69
2022/06/08 05:25:22;;;;;;;3.03;2.80;;;15.50;99.90;;;;;;5073541;28;20210;-69
2022/06/08 05:27:49;;;;;;;3.13;2.83;;;15.60;99.90;;;;;;5073333;28;20750;-69
2022/06/08 05:30:18;;;;;;;5.00;2.80;;;15.60;99.90;;;;;;5073496;28;20625;-69
2022/06/08 05:32:45;;;;;;;3.20;2.90;;;15.70;99.90;;;;;;5073218;28;20296;-69
2022/06/08 05:35:12;;;;;;;6.03;3.10;;;15.70;99.90;;;;;;5073423;28;20711;-69
2022/06/08 05:37:39;;;;;;;3.35;2.63;;;15.80;99.90;;;;;;5073094;28;20765;-69
2022/06/08 05:40:09;;;;;;;3.25;2.72;;;15.90;99.90;;;;;;5073543;28;20323;-69
2022/06/08 05:42:36;;;;;;;2.88;2.67;;;15.90;99.90;;;;;;5073223;28;20292;-69
2022/06/08 05:45:03;;;;;;;4.95;2.60;;;15.90;99.90;;;;;;5073371;28;20304;-69
2022/06/08 05:47:31;;;;;;;3.17;2.50;;;16.00;99.90;;;;;;5077313;28;20207;-69
2022/06/08 05:49:58;;;;;;;3.85;3.33;;;16.00;99.90;;;;;;5077211;28;20316;-68
2022/06/08 05:52:26;;;;;;;3.15;2.90;;;16.00;99.90;;;;;;5076739;28;20206;-69
2022/06/08 05:54:53;;;;;;;4.97;2.60;;;16.00;99.90;;;;;;5077392;28;20194;-69
2022/06/08 05:57:20;;;;;;;3.83;2.85;;;16.20;99.90;;;;;;5077193;28;20260;-69
2022/06/08 05:59:47;;;;;;;3.05;2.50;;;16.30;99.90;;;;;;5077100;28;20222;-69
2022/06/08 06:02:16;;;;;;;2.83;2.10;;;16.20;99.90;;;;;;5076993;28;20312;-69
2022/06/08 06:04:45;;;;;;;3.03;2.80;;;16.30;99.90;;;;;;5077124;28;20574;-69
2022/06/08 06:07:12;;;;;;;3.22;2.85;;;16.30;99.90;;;;;;5077035;28;20289;-69
2022/06/08 06:09:40;;;;;;;4.35;2.45;;;16.30;99.90;;;;;;5076637;28;20225;-69
2022/06/08 06:12:08;;;;;;;5.22;2.80;;;16.30;99.90;;;;;;5076703;28;20202;-70
2022/06/08 06:14:35;;;;;;;2.50;2.30;;;16.20;99.90;;;;;;5076796;28;20735;-69
2022/06/08 06:17:03;;;;;;;3.35;2.42;;;16.40;99.90;;;;;;5076731;28;20297;-69
2022/06/08 06:19:29;;;;;;;2.67;2.47;;;16.60;99.90;;;;;;5076723;28;20316;-69
2022/06/08 06:21:58;;;;;;;3.05;2.85;;;16.50;99.90;;;;;;5076794;28;20216;-69
2022/06/08 06:24:26;;;;;;;4.05;3.17;;;16.50;99.90;;;;;;5076522;28;20209;-69
2022/06/08 06:26:53;;;;;;;2.72;2.40;;;16.60;99.90;;;;;;5076687;28;20747;-69
2022/06/08 06:29:20;;;;;;;2.50;2.30;;;16.70;99.90;;;;;;5076379;28;20229;-69
2022/06/08 06:31:50;;;;;;;5.32;3.42;;;16.90;99.90;;;;;;5076514;28;20206;-69
2022/06/08 06:34:22;;;;;;;3.58;2.25;;;17.10;99.90;;;;;;5076442;28;20203;-69
2022/06/08 06:36:49;;;;;;;3.50;2.50;;;17.20;99.90;;;;;;5076449;28;20203;-69
2022/06/08 06:39:17;;;;;;;2.40;2.30;;;17.40;99.90;;;;;;5076213;28;20321;-69
2022/06/08 06:41:46;;;;;;;2.75;2.25;;;17.40;99.90;;;;;;5076404;28;20301;-69
2022/06/08 06:44:13;;;;;;;6.45;2.90;;;17.50;99.90;;;;;;5075862;28;20232;-69
2022/06/08 06:46:40;;;;;;;2.50;2.10;;;17.60;99.90;;;;;;5076226;28;20293;-69
2022/06/08 06:49:07;;;;;;;2.63;1.90;;;17.70;99.90;;;;;;5076068;28;20310;-69
2022/06/08 06:51:35;;;;;;;3.47;2.40;;;17.70;99.90;;;;;;5076246;28;20564;-69
2022/06/08 06:54:01;;;;;;;2.40;2.20;;;17.80;99.90;;;;;;5075717;28;20215;-69
2022/06/08 06:56:30;;;;;;;3.00;2.28;;;17.90;99.90;;;;;;5075373;28;20199;-69
2022/06/08 06:58:56;;;;;;;2.95;2.60;;;18.10;99.90;;;;;;5075386;28;20644;-69
2022/06/08 07:01:23;;;;;;;2.40;2.10;;;18.30;99.90;;;;;;5076013;28;20290;-69
2022/06/08 07:03:50;;;;;;;3.45;2.42;;;18.30;99.90;;;;;;5075650;28;20752;-69
2022/06/08 07:06:17;;;;;;;3.40;2.30;;;18.30;99.90;;;;;;5075794;28;20293;-69
2022/06/08 07:08:44;;;;;;;3.45;2.60;;;18.40;99.90;;;;;;5075915;28;20318;-69
2022/06/08 07:13:59;;;;;;;2.40;2.20;;;18.50;99.90;;;;;;5075555;28;20199;-69
2022/06/08 07:16:26;;;;;;;3.08;2.15;;;18.70;99.90;;;;;;5075720;28;20540;-69
2022/06/08 07:18:52;;;;;;;2.58;2.30;;;18.90;99.90;;;;;;5075545;28;20233;-69
2022/06/08 07:21:20;;;;;;;3.75;2.05;;;19.10;99.90;;;;;;5075707;28;20310;-69
2022/06/08 07:23:47;;;;;;;2.10;2.00;;;19.20;99.90;;;;;;5075201;28;20239;-69
2022/06/08 07:26:14;;;;;;;2.50;2.13;;;19.40;99.90;;;;;;5075576;28;20529;-69
2022/06/08 07:28:42;;;;;;;2.60;2.20;;;19.60;99.90;;;;;;5075454;28;20541;-69
2022/06/08 07:31:12;;;;;;;2.60;1.90;;;19.60;99.90;;;;;;5075482;28;20506;-69
2022/06/08 07:33:39;;;;;;;2.77;2.23;;;19.70;99.90;;;;;;5069190;28;20477;-69
2022/06/08 07:36:06;;;;;;;4.43;2.03;;;19.70;99.90;;;;;;5065654;28;20443;-69
2022/06/08 07:38:33;;;;;;;2.77;2.47;;;19.60;99.90;;;;;;5073819;28;20488;-70
2022/06/08 07:41:00;;;;;;;2.60;2.20;;;19.60;99.90;;;;;;5073978;28;20451;-69
2022/06/08 07:43:27;;;;;;;3.27;2.13;;;19.50;99.90;;;;;;5074041;28;20552;-69
2022/06/08 07:45:54;;;;;;;2.63;2.43;;;19.60;99.90;;;;;;5073768;28;20541;-70
2022/06/08 07:51:07;;;;;;;2.00;1.77;;;20.90;99.90;;;;;;5073676;28;21026;-70
2022/06/08 07:53:34;;;;;;;2.30;1.97;;;22.00;99.90;;;;;;5073552;28;20548;-69
2022/06/08 07:56:01;;;;;;;2.10;1.80;;;22.30;99.90;;;;;;5073582;28;20490;-69
2022/06/08 07:58:28;;;;;;;4.13;1.90;;;22.60;99.90;;;;;;5073276;28;20564;-68
2022/06/08 08:00:57;;;;;;;1.90;1.73;;;22.90;99.90;;;;;;5074154;28;20452;-69
2022/06/08 08:03:26;;;;;;;3.70;2.20;;;23.60;99.90;;;;;;5073311;28;20814;-68
2022/06/08 08:05:53;;;;;;;3.47;1.73;;;23.80;99.90;;;;;;5073578;28;20813;-69
2022/06/08 08:08:20;;;;;;;1.70;1.60;;;23.90;99.90;;;;;;5072909;28;20556;-69
2022/06/08 08:10:47;;;;;;;3.60;1.87;;;23.40;98.10;;;;;;5073155;28;20479;-69
2022/06/08 08:13:15;;;;;;;8.00;7.20;;;23.20;97.70;;;;;;5073308;28;20457;-70
2022/06/08 08:15:43;;;;;;;1.93;1.70;;;23.00;97.60;;;;;;5073782;28;20445;-69
2022/06/08 08:18:11;;;;;;;3.10;1.97;;;22.60;99.00;;;;;;5073494;28;20532;-70
2022/06/08 08:20:40;;;;;;;2.80;2.17;;;22.50;99.90;;;;;;5073596;28;20547;-70
2022/06/08 08:23:07;;;;;;;2.80;1.93;;;22.40;99.90;;;;;;5073369;28;20615;-70
2022/06/08 08:25:35;;;;;;;4.37;2.23;;;22.30;99.90;;;;;;5073300;28;20789;-70
2022/06/08 08:28:02;;;;;;;2.00;1.90;;;22.30;99.90;;;;;;5073042;28;20452;-70
2022/06/08 08:30:31;;;;;;;2.20;2.00;;;22.20;99.90;;;;;;5073922;28;20547;-69
2022/06/08 08:32:57;;;;;;;2.13;1.97;;;22.30;99.90;;;;;;5074079;28;20528;-70
2022/06/08 08:35:25;;;;;;;3.23;2.07;;;22.70;99.90;;;;;;5074162;28;20525;-70
2022/06/08 08:37:54;;;;;;;2.00;1.70;;;23.60;99.50;;;;;;5074151;28;20543;-69
2022/06/08 08:40:32;;;;;;;1.93;1.70;;;24.40;97.10;;;;;;5073714;28;20568;-70
2022/06/08 08:42:59;;;;;;;2.10;1.80;;;25.20;95.30;;;;;;5073807;28;20533;-69
2022/06/08 08:45:32;;;;;;;2.37;1.50;;;26.10;91.80;;;;;;5073792;28;20542;-70
2022/06/08 08:48:05;;;;;;;2.70;2.20;;;27.30;84.80;;;;;;5073805;28;20451;-70
2022/06/08 08:50:36;;;;;;;1.63;1.53;;;27.90;83.80;;;;;;5073994;28;20547;-70
2022/06/08 08:53:17;;;;;;;2.47;1.60;;;28.50;82.40;;;;;;5073530;28;20543;-70
2022/06/08 08:55:50;;;;;;;2.30;1.90;;;29.40;77.30;;;;;;5073946;28;20862;-70
2022/06/08 08:58:21;;;;;;;2.10;1.57;;;29.70;75.60;;;;;;5073604;28;20445;-70
2022/06/08 09:00:51;;;;;;;2.63;2.00;;;30.30;67.90;;;;;;5073884;28;20534;-70
2022/06/08 09:03:28;;;;;;;1.53;1.43;;;31.10;61.90;;;;;;5073493;28;20520;-70
2022/06/08 09:06:02;;;;;;;1.50;1.40;;;32.10;62.20;;;;;;5073820;28;20452;-70
2022/06/08 09:08:30;;;;;;;1.43;1.30;;;32.00;62.00;;;;;;5073667;28;20528;-70
2022/06/08 09:10:59;;;;;;;2.20;1.53;;;32.30;59.90;;;;;;5073416;28;21005;-70
2022/06/08 09:13:33;;;;;;;2.20;1.70;;;33.00;54.20;;;;;;5073318;28;20535;-70
2022/06/08 09:16:00;;;;;;;2.37;2.17;;;32.00;56.50;;;;;;5074477;28;20760;-70
2022/06/08 09:18:33;;;;;;;2.50;1.50;;;31.90;57.90;;;;;;5073518;28;20544;-70
2022/06/08 09:21:02;;;;;;;1.43;1.43;;;32.00;57.30;;;;;;5072936;28;20900;-70
2022/06/08 09:23:40;;;;;;;2.33;2.17;;;32.90;52.50;;;;;;5073404;28;20532;-70
2022/06/08 09:26:13;;;;;;;1.73;1.63;;;32.80;53.10;;;;;;5073583;28;20441;-70
2022/06/08 09:28:41;;;;;;;2.57;2.37;;;33.40;52.70;;;;;;5073455;28;20465;-70
2022/06/08 09:31:24;;;;;;;6.10;3.97;;;33.20;52.60;;;;;;5073486;28;20839;-70
2022/06/08 09:34:05;;;;;;;1.90;1.80;;;33.40;52.20;;;;;;5073356;28;20541;-70
2022/06/08 09:36:32;;;;;;;2.17;1.53;;;33.50;54.70;;;;;;5073433;28;21007;-70
2022/06/08 09:39:00;;;;;;;2.63;2.03;;;34.20;52.20;;;;;;5073286;28;20485;-70
2022/06/08 09:41:34;;;;;;;2.13;1.97;;;33.90;51.80;;;;;;5073389;28;20443;-70
2022/06/08 09:44:18;;;;;;;2.77;1.90;;;33.90;50.10;;;;;;5073067;28;20990;-70
2022/06/08 09:52:48;;;;;;;1.60;1.50;;;33.00;50.30;;;;;;5072919;28;20467;-71
2022/06/08 09:55:31;;;;;;;2.30;2.10;;;33.40;49.40;;;;;;5073147;28;20460;-70
2022/06/08 09:58:09;;;;;;;2.30;1.97;;;33.30;48.40;;;;;;5073331;28;20440;-68
2022/06/08 10:00:41;;;;;;;7.17;6.57;;;33.90;46.90;;;;;;5073467;28;20557;-68
2022/06/08 10:03:44;;;;;;;2.63;2.17;;;34.00;46.30;;;;;;5072872;28;20459;-70
2022/06/08 10:06:20;;;;;;;1.60;1.50;;;32.90;49.80;;;;;;5073384;28;20441;-70
2022/06/08 10:08:55;;;;;;;2.23;1.63;;;33.50;48.60;;;;;;5073458;28;20560;-70
2022/06/08 10:11:37;;;;;;;2.90;2.70;;;33.50;46.20;;;;;;5072919;28;20425;-70
2022/06/08 10:14:12;;;;;;;1.33;1.33;;;31.80;47.10;;;;;;5073102;28;20452;-70
2022/06/08 10:16:43;;;;;;;2.77;1.97;;;30.10;50.90;;;;;;5073057;28;20825;-70
2022/06/08 10:19:17;;;;;;;1.53;1.50;;;28.80;53.70;;;;;;5073919;28;20481;-70
2022/06/08 10:21:45;;;;;;;2.33;1.63;;;28.20;54.20;;;;;;5074255;28;20520;-70
2022/06/08 10:24:16;;;;;;;1.43;1.40;;;28.20;57.20;;;;;;5073399;28;20565;-70
2022/06/08 10:26:48;;;;;;;2.37;1.60;;;28.10;60.70;;;;;;5073368;28;20534;-70
2022/06/08 10:29:21;;;;;;;1.60;1.50;;;28.10;54.90;;;;;;5073242;28;20555;-70
2022/06/08 10:31:55;;;;;;;3.10;1.80;;;27.70;57.60;;;;;;5074344;28;20943;-70
2022/06/08 10:34:24;;;;;;;1.70;1.50;;;27.10;61.30;;;;;;5076527;28;20528;-70
2022/06/08 10:36:54;;;;;;;1.57;1.47;;;26.70;63.50;;;;;;5076471;28;20454;-70
2022/06/08 10:39:22;;;;;;;2.70;2.23;;;26.30;61.60;;;;;;5076446;28;20484;-70
2022/06/08 10:44:58;;;;;;;2.83;1.30;;;26.30;63.80;;;;;;5063150;28;20429;-70
2022/06/08 10:47:30;;;;;;;1.70;1.60;;;26.40;59.40;;;;;;5076389;28;20810;-70
2022/06/08 10:50:16;;;;;;;2.40;1.50;;;26.50;61.40;;;;;;5076198;28;20465;-70
2022/06/08 10:52:45;;;;;;;1.30;1.20;;;26.50;58.00;;;;;;5075990;28;20535;-70
2022/06/08 10:55:37;;;;;;;2.17;1.70;;;26.20;62.50;;;;;;5076353;28;20520;-70
2022/06/08 10:58:15;;;;;;;1.40;1.30;;;26.00;67.80;;;;;;5076139;28;20437;-70
2022/06/08 11:01:06;;;;;;;1.70;1.37;;;25.90;62.20;;;;;;5075984;28;20484;-70
2022/06/08 11:03:47;;;;;;;1.67;1.20;;;25.90;65.90;;;;;;5075902;28;20536;-70
2022/06/08 11:06:53;;;;;;;1.40;1.30;;;26.10;59.00;;;;;;5076087;28;20448;-70
2022/06/08 11:09:21;;;;;;;2.03;1.50;;;26.40;58.50;;;;;;5075935;28;20558;-70
2022/06/08 11:11:49;;;;;;;1.50;1.40;;;26.50;60.10;;;;;;5075982;28;20471;-70
2022/06/08 11:14:32;;;;;;;2.10;1.23;;;26.60;63.50;;;;;;5075646;28;20444;-70
2022/06/08 11:17:04;;;;;;;1.77;1.67;;;26.50;56.90;;;;;;5075812;28;20528;-70
2022/06/08 11:19:33;;;;;;;1.30;1.20;;;26.50;56.80;;;;;;5075754;28;20579;-70
2022/06/08 11:22:05;;;;;;;1.37;1.30;;;26.70;56.00;;;;;;5075849;28;20452;-70
2022/06/08 11:24:37;;;;;;;1.60;1.50;;;26.60;55.60;;;;;;5075731;28;20441;-70
2022/06/08 11:27:30;;;;;;;1.93;1.40;;;26.50;55.00;;;;;;5075566;28;20532;-70
2022/06/08 11:30:00;;;;;;;1.47;1.20;;;26.40;56.90;;;;;;5075566;28;20815;-70
2022/06/08 11:33:09;;;;;;;6.37;5.40;;;26.30;56.70;;;;;;5075255;28;20532;-69
2022/06/08 11:36:16;;;;;;;1.43;1.33;;;26.30;57.30;;;;;;5075469;28;20954;-70
2022/06/08 11:38:56;;;;;;;1.27;1.10;;;26.10;56.20;;;;;;5075302;28;20463;-70
2022/06/08 11:41:41;;;;;;;2.97;2.53;;;25.90;58.90;;;;;;5075349;28;20476;-70
2022/06/08 11:44:15;;;;;;;6.23;4.20;;;25.80;58.30;;;;;;5074081;28;20453;-70
2022/06/08 11:46:46;;;;;;;1.50;1.40;;;25.70;56.90;;;;;;5075143;28;20961;-70
2022/06/08 11:49:32;;;;;;;2.23;1.20;;;25.70;54.50;;;;;;5075256;28;20471;-69
2022/06/08 11:51:59;;;;;;;1.90;1.60;;;25.50;55.40;;;;;;5074756;28;20449;-69
2022/06/08 11:54:32;;;;;;;1.93;1.83;;;25.20;63.00;;;;;;5074978;28;20488;-69
2022/06/08 11:57:05;;;;;;;2.43;2.23;;;25.10;64.50;;;;;;5075038;28;20532;-69
2022/06/08 11:59:37;;;;;;;2.20;1.27;;;25.00;62.30;;;;;;5074523;28;20579;-69
2022/06/08 12:02:19;;;;;;;1.30;1.20;;;24.90;59.80;;;;;;5074893;28;20505;-69
2022/06/08 12:04:49;;;;;;;2.93;2.73;;;24.80;59.30;;;;;;5075059;28;20454;-69
2022/06/08 12:07:43;;;;;;;1.53;1.27;;;24.80;58.90;;;;;;5075277;28;20459;-69
2022/06/08 12:10:14;;;;;;;1.70;1.60;;;24.80;66.50;;;;;;5075076;28;20886;-69
2022/06/08 12:12:44;;;;;;;2.30;1.37;;;24.90;62.10;;;;;;5074682;28;20534;-70
2022/06/08 12:15:37;;;;;;;1.30;1.30;;;25.10;62.30;;;;;;5074993;28;20445;-69
2022/06/08 12:18:24;;;;;;;1.37;1.27;;;25.30;64.10;;;;;;5060674;28;20441;-69
2022/06/08 12:21:07;;;;;;;1.60;1.50;;;25.40;59.30;;;;;;5074498;28;20568;-69
2022/06/08 12:23:42;;;;;;;1.40;1.30;;;25.50;59.80;;;;;;5074156;28;20463;-69
2022/06/08 12:26:22;;;;;;;1.63;1.50;;;25.70;61.10;;;;;;5074403;28;20463;-69
2022/06/08 12:29:01;;;;;;;1.20;1.20;;;25.70;57.50;;;;;;5074155;28;20540;-69
2022/06/08 12:31:31;;;;;;;1.30;1.20;;;25.60;60.40;;;;;;5074076;28;20899;-69
2022/06/08 12:34:26;;;;;;;1.60;1.50;;;25.40;55.50;;;;;;5074143;28;20447;-69
2022/06/08 12:36:53;;;;;;;1.20;1.20;;;25.20;59.00;;;;;;5074419;28;20483;-69
2022/06/08 12:39:28;;;;;;;2.10;2.00;;;25.00;62.50;;;;;;5074380;28;20889;-69
2022/06/08 12:41:56;;;;;;;1.97;1.30;;;24.90;63.80;;;;;;5074621;28;20511;-69
2022/06/08 12:44:26;;;;;;;1.37;1.23;;;24.90;59.20;;;;;;5074141;28;20532;-69
2022/06/08 12:46:59;;;;;;;1.93;1.40;;;25.00;62.50;;;;;;5074274;28;20453;-69
2022/06/08 12:49:40;;;;;;;1.10;1.10;;;25.10;58.00;;;;;;5074161;28;20555;-69
2022/06/08 12:52:21;;;;;;;1.00;1.00;;;25.10;58.40;;;;;;5073823;28;20531;-69
2022/06/08 12:54:47;;;;;;;1.20;1.10;;;25.10;56.30;;;;;;5073807;28;20432;-69
2022/06/08 12:57:18;;;;;;;2.30;1.17;;;25.10;57.70;;;;;;5074201;28;20852;-69
2022/06/08 12:59:48;;;;;;;1.30;1.23;;;25.20;57.40;;;;;;5073746;28;20531;-69
2022/06/08 13:02:19;;;;;;;1.43;1.33;;;25.20;54.70;;;;;;5074207;28;20520;-69
2022/06/08 13:04:48;;;;;;;2.20;1.40;;;25.20;57.30;;;;;;5073840;28;20882;-69
2022/06/08 13:07:17;;;;;;;1.90;1.33;;;25.20;57.80;;;;;;5073641;28;20447;-69
2022/06/08 13:09:44;;;;;;;2.13;1.33;;;25.10;60.10;;;;;;5073701;28;20840;-69
2022/06/08 13:12:15;;;;;;;1.97;1.00;;;25.10;61.00;;;;;;5073435;28;20488;-69
2022/06/08 13:14:42;;;;;;;1.40;1.30;;;25.00;65.10;;;;;;5073681;28;20528;-69
2022/06/08 13:17:12;;;;;;;2.10;1.30;;;24.90;66.10;;;;;;5073482;28;20531;-69
2022/06/08 13:19:39;;;;;;;3.67;1.50;;;24.80;65.50;;;;;;5073256;28;20555;-69
2022/06/08 13:22:07;;;;;;;2.27;1.30;;;24.90;62.10;;;;;;5073410;28;20463;-70
2022/06/08 13:24:34;;;;;;;2.30;1.50;;;24.90;60.10;;;;;;5073547;28;20528;-69
2022/06/08 13:27:02;;;;;;;1.50;1.40;;;24.90;65.80;;;;;;5073809;28;20871;-69